MST,Max TemperatureF,Mean TemperatureF,Min TemperatureF,Max Dew PointF,MeanDew PointF,Min DewpointF,Max Humidity, Mean Humidity, Min Humidity, Max Sea Level PressureIn, Mean Sea Level PressureIn, Min Sea Level PressureIn, Max VisibilityMiles, Mean VisibilityMiles, Min VisibilityMiles, Max Wind SpeedMPH, Mean Wind SpeedMPH, Max Gust SpeedMPH,PrecipitationIn, CloudCover, Events, WindDirDegrees
2010-11-1,62,47,31,33,29,24,82,57,32,30.27,30.21,30.17,10,10,10,31,18,38,0.00,0,,234
2010-11-2,64,49,34,39,32,27,70,52,34,30.51,30.31,30.19,10,10,10,35,15,46,0.00,2,,273
2010-11-3,53,40,26,29,24,20,85,57,29,30.73,30.63,30.53,10,10,10,16,5,16,0.00,0,,181
2010-11-4,66,48,30,28,21,11,75,45,15,30.51,30.25,30.06,10,10,10,14,6,16,0.00,0,,117
2010-11-5,75,55,34,33,28,23,70,43,15,30.03,29.91,29.79,10,10,10,20,9,23,0.00,0,,176
2010-11-6,69,56,42,37,34,30,70,48,26,29.91,29.85,29.79,10,10,10,15,5,17,0.00,0,,178
2010-11-7,68,54,40,36,32,30,76,50,24,29.83,29.72,29.61,10,10,10,28,9,32,0.00,0,,193
2010-11-8,54,43,31,38,33,30,100,71,41,29.92,29.78,29.60,10,4,1,16,9,21,0.59,8,Rain-Snow,285
2010-11-9,36,28,19,31,28,17,100,88,75,30.00,29.93,29.84,10,7,1,18,9,23,0.01,6,Snow,262
2010-11-10,32,24,16,24,20,14,92,78,63,30.25,30.10,29.96,10,10,10,10,6,12,0.00,6,,214
2010-11-11,34,25,16,23,18,12,84,72,59,30.35,30.31,30.25,10,10,10,15,8,17,0.00,1,,173
2010-11-12,40,29,17,30,25,13,92,76,59,30.46,30.38,30.30,10,10,9,22,9,26,T,5,Snow,255
2010-11-13,38,33,28,27,24,20,92,70,48,30.43,30.25,30.05,10,10,9,18,10,22,T,4,,247
2010-11-14,42,36,29,34,30,27,92,76,60,30.06,29.90,29.72,10,8,1,18,10,21,0.12,7,Rain-Snow,277
2010-11-15,38,35,32,36,33,30,100,91,82,29.98,29.85,29.63,10,6,1,20,9,25,0.34,7,Rain-Snow,273
2010-11-16,38,26,14,34,24,12,100,88,76,30.32,29.77,29.41,10,4,0,35,17,48,0.59,8,Fog-Rain-Snow,283
2010-11-17,38,24,9,28,16,7,100,85,70,30.35,30.15,29.87,10,8,1,16,9,21,T,7,Snow,114
2010-11-18,43,24,4,28,16,2,100,78,55,30.11,29.78,29.54,10,6,0,29,11,35,0.04,6,Fog-Snow,283
2010-11-19,13,7,1,8,5,-1,95,86,76,30.14,30.01,29.86,10,7,2,20,9,25,T,5,Snow,90
2010-11-20,10,1,-8,5,0,-9,95,88,80,30.16,29.95,29.82,10,2,1,14,8,17,0.05,8,Snow,297
2010-11-21,5,-2,-10,-4,-7,-14,87,77,66,30.09,29.94,29.72,10,8,1,13,5,14,0.01,4,Snow,289
2010-11-22,0,-8,-16,-6,-8,-15,92,82,72,30.20,29.89,29.75,10,5,1,13,4,15,0.02,7,Snow,274
2010-11-23,-7,-11,-15,-11,-14,-18,91,85,78,30.14,29.86,29.70,10,3,0,17,9,21,0.03,7,Fog-Snow,295
2010-11-24,4,-6,-17,-2,-11,-20,86,75,64,30.09,29.84,29.69,10,4,1,15,7,18,T,7,Snow,259
2010-11-25,25,10,-5,18,8,-10,75,69,63,30.09,30.00,29.82,10,9,2,28,17,31,T,3,Snow,247
2010-11-26,39,30,20,27,21,15,77,68,59,30.09,30.00,29.90,10,10,10,28,16,31,0.00,0,,231
2010-11-27,38,31,23,29,22,17,88,74,59,29.88,29.72,29.58,10,10,10,18,5,23,0.00,4,,158
2010-11-28,30,25,19,25,21,18,100,85,69,30.11,29.74,29.55,10,6,2,20,11,28,0.01,8,Snow,290
2010-11-29,23,15,6,18,14,2,92,76,59,30.37,30.20,29.98,10,7,2,18,7,18,T,6,Snow,257
2010-11-30,35,20,4,25,11,0,83,68,53,30.34,30.19,29.97,10,10,10,25,8,30,0.00,1,,196